Amunt
Inicio > meteoXarxa
Fes-te'n soci

METEOXARXA

Vinaròs
Ubicació
Comarca el Baix Maestrat
Altitud (msnm) 22
Posició geogràfica 40° 28' 12.00" N, 00° 28' 5.16" E
Model Davis Vantage Pro 2
Presa de dades
Font de les dades Meteo Vinaròs
Estadístiques. Resum
Data Temperatura (ºC) Humitat (%) Pressió (hPa) Vent (km/h) Precipit. (mm)
Mínima Mitjana Màxima Mínima Mitjana Màxima Mínima Mitjana Màxima Predom. Mitjana Ràfega màxima Total Dies de pluja
Mínima Mitjana Màxima Mínima Mitjana Màxima
Últimes dades diàries
20-02-2017 7,3     11,3     18,5 S 2,7 20,9 0,0  
19-02-2017 8,3     12,1     17,2 NE 0,3 14,5 0,0  
18-02-2017 6,9     10,9     16,2 SSE 1,9 16,1 0,3  
17-02-2017 7,7     11,1     14,6 SSE 2,7 24,1 0,0  
16-02-2017 10,7     13,3     16,4 SSE 0,5 12,9 0,0  
15-02-2017 8,7     12,4     16,5 SSE 0,3 14,5 0,3  
14-02-2017 7,6     11,2     14,6 SSE 1,0 14,5 0,3  
13-02-2017 11,6     13,9     16,2 NNE 1,8 19,3 7,6  
12-02-2017 12,5     13,7     16,2 NNE 1,3 16,1 0,0  
11-02-2017 7,4     11,3     14,2 SE 1,0 14,5 0,0  
10-02-2017 4,8     9,3     13,8 SE 1,9 20,9 0,0  
09-02-2017 6,4     10,6     15,7 SSE 4,3 32,2 0,0  
08-02-2017 10,1     11,9     15,2 W 8,7 53,1 0,0  
07-02-2017 12,7     17,2     22,5 WSW 2,3 30,6 0,3  
06-02-2017 10,7     15,4     20,4 W 6,6 53,1 0,0  
05-02-2017 10,2     12,9     16,9 WSW 4,8 48,3 0,0  
04-02-2017 9,3     14,4     19,2 SSW 4,5 35,4 0,0  
03-02-2017 7,0     11,9     18,3 NW 2,6 37,0 0,3  
02-02-2017 8,3     10,5     13,0 S 0,3 16,1 2,5  
01-02-2017 8,4     10,8     14,1 S 1,4 16,1 0,0  
31-01-2017 7,8     10,3     12,2 NE 8,0 0,0  
30-01-2017 7,8     11,3     15,6 ENE 9,7 0,0  
29-01-2017 5,0     9,6     14,4 WNW 2,3 29,0 0,0  
28-01-2017 8,9     11,9     17,8 N 1,1 30,6 8,4  
27-01-2017 7,4     10,8     15,1 SSE 1,1 32,2 19,0  
26-01-2017 3,7     8,1     12,3 NW 0,2 9,7 0,0  
25-01-2017 3,9     8,5     13,6 ENE 0,5 19,3 0,0  
24-01-2017 8,4     10,9     15,2 WNW 2,9 25,7 0,0  
23-01-2017 7,3     9,7     12,6 N 0,5 16,1 1,8  
22-01-2017 8,7     10,1     12,1 N 4,5 30,6 1,3  
21-01-2017 7,9     10,3     11,9 N 5,6 38,6 12,7  
20-01-2017 9,1     10,0     11,1 ESE 6,0 33,8 41,7  
Dades del mes en curs (actualitzades fins l'últim dia disponible)
02/2017 4,8 8,8 12,7 12,3 13,0 16,5 22,5   2,5 53,1 11,6  
Últimes dades mensuals
01/2017 1,9 6,0 10,7 9,6 10,4 14,0 19,0 2,0 38,6 97,6 7
12/2016 3,2 7,8 15,1 11,2 11,7 16,2 20,1 0,9 29,0 70,9 11
11/2016 6,7 10,6 14,3 14,5 12,6 18,9 26,0 1,7 54,7 83,2 10
10/2016 11,6 16,0 19,8 19,6 18,4 23,4 27,0 1,1 30,6 43,8 10
09/2016 14,4 19,0 23,4 23,2 24,6 27,1 30,3 2,6 46,7 44,8 5
08/2016 17,9 21,1 24,2 25,1 24,4 28,2 30,3 3,7 37,0 14,0 4
07/2016 16,8 20,9 23,8 25,0 24,8 28,1 31,7 4,4 43,5 0,0 0
06/2016 14,6 18,3 21,6 22,1 21,2 25,2 31,2 4,2 43,5 7,6 6
05/2016 10,2 14,1 18,2 17,7 16,7 21,2 27,3 3,8 41,8 25,0 8
04/2016 8,2 11,5 14,4 15,2 14,7 18,7 23,8 2,9 54,7 37,6 7
03/2016 5,5 9,0 12,4 12,9 12,1 17,4 24,6 2,5 46,7 59,4 5
02/2016 3,3 8,3 15,0 12,4 11,7 17,6 27,1 2,5 64,4 12,1 8
01/2016 4,3 8,3 11,8 12,3 13,1 16,6 23,7 2,3 54,7 4,8 3
Dades de l'any en curs (actualitzades fins l'últim dia disponible)
2017 1,9 7,1 12,7 10,7 10,4 15,0 22,5   2,2 53,1 109,2  
Últimes dades anuals
2009 -0,6 13,5 24,6 17,4 6,2 21,4 34,0 3,1 77,2 323,0 75
2010 0,7 12,7 24,9 16,5 5,4 20,4 35,3 3,3 62,8 403,8 93
2011 -0,3 13,8 24,6 17,6 8,1 21,5 31,6 2,8 77,2 525,1 70
2012 459,7
2013 1,5 13,4 17,8 17,2 18,7 21,2 31,2 3,4 62,8 409,8 69
2014 1,6 14,1 25,4 17,8 10,9 21,6 34,0 3,5 69,2 367,9 69
2015 2,2 13,7 20,3 17,6 18,9 21,6 31,8 2,9 57,9 622,6 73
2016 3,2 13,7 24,2 17,6 11,7 21,6 31,7 2,7 64,4 403,2 77